createdAt,value
2022-08-19T00:01:52.725Z,99000.86
2022-08-19T00:04:49.740Z,98997.46
2022-08-19T00:07:18.126Z,99007.27
2022-08-19T00:09:47.004Z,99000.72
2022-08-19T00:12:15.244Z,99006.63
2022-08-19T00:14:43.719Z,99003.90
2022-08-19T00:17:12.007Z,99006.92
2022-08-19T00:19:41.845Z,99003.77
2022-08-19T00:22:09.919Z,99002.66
2022-08-19T00:24:39.607Z,98998.86
2022-08-19T00:27:25.910Z,98994.85
2022-08-19T00:29:55.516Z,98991.14
2022-08-19T00:32:24.021Z,98988.85
2022-08-19T00:34:54.672Z,98988.95
2022-08-19T00:37:27.112Z,98982.89
2022-08-19T00:39:56.976Z,98980.44
2022-08-19T00:42:26.201Z,98985.13
2022-08-19T00:44:54.317Z,98978.87
2022-08-19T00:47:22.537Z,98979.50
2022-08-19T00:49:56.948Z,98982.69
2022-08-19T00:52:30.588Z,98973.27
2022-08-19T00:55:02.504Z,98979.63
2022-08-19T00:57:36.267Z,98979.23
2022-08-19T01:00:09.666Z,98975.41
2022-08-19T01:02:37.889Z,98968.40
2022-08-19T01:05:11.165Z,98962.75
2022-08-19T01:07:41.739Z,98961.48
2022-08-19T01:10:15.106Z,98961.56
2022-08-19T01:12:44.322Z,98963.08
2022-08-19T01:15:15.357Z,98963.23
2022-08-19T01:17:45.493Z,98966.92
2022-08-19T01:20:17.274Z,98979.36
2022-08-19T01:22:53.471Z,98984.55
2022-08-19T01:25:29.481Z,98991.12
2022-08-19T01:28:01.702Z,98989.89
2022-08-19T01:30:39.313Z,98986.01
2022-08-19T01:33:12.941Z,98982.65
2022-08-19T01:35:43.604Z,98993.08
2022-08-19T01:38:22.841Z,98988.17
2022-08-19T01:40:53.267Z,98989.81
2022-08-19T01:43:21.999Z,98993.00
2022-08-19T01:45:50.109Z,98988.27
2022-08-19T01:48:18.696Z,98984.96
2022-08-19T01:50:49.094Z,98975.35
2022-08-19T01:53:24.762Z,98979.84
2022-08-19T01:55:59.118Z,98968.14
2022-08-19T01:58:38.025Z,98955.50
2022-08-19T02:01:08.371Z,98936.86
2022-08-19T02:03:36.395Z,98924.09
2022-08-19T02:06:06.314Z,98912.12
2022-08-19T02:08:38.104Z,98910.60
2022-08-19T02:11:08.524Z,98898.14
2022-08-19T02:13:36.621Z,98899.73
2022-08-19T02:16:04.787Z,98893.04
2022-08-19T02:18:32.942Z,98889.08
2022-08-19T02:21:01.056Z,98891.88
2022-08-19T02:23:29.147Z,98886.19
2022-08-19T02:25:57.337Z,98882.35
2022-08-19T02:28:25.470Z,98885.73
2022-08-19T02:30:53.806Z,98887.02
2022-08-19T02:33:21.829Z,98888.52
2022-08-19T02:35:58.919Z,98892.75
2022-08-19T02:38:27.162Z,98890.58
2022-08-19T02:40:58.550Z,98887.34
2022-08-19T02:43:29.413Z,98889.64
2022-08-19T02:46:28.223Z,98883.72
2022-08-19T02:49:11.234Z,98875.02
2022-08-19T02:51:45.795Z,98871.83
2022-08-19T02:54:15.127Z,98870.59
2022-08-19T02:56:45.539Z,98872.77
2022-08-19T02:59:13.761Z,98873.83
2022-08-19T03:01:43.648Z,98875.12
2022-08-19T03:04:16.688Z,98877.68
2022-08-19T03:06:47.364Z,98877.83
2022-08-19T03:09:17.421Z,98876.27
2022-08-19T03:11:48.721Z,98878.03
2022-08-19T03:14:20.933Z,98880.34
2022-08-19T03:16:53.497Z,98883.92
2022-08-19T03:19:24.864Z,98881.35
2022-08-19T03:21:53.376Z,98883.57
2022-08-19T03:24:22.370Z,98883.04
2022-08-19T03:26:53.760Z,98879.95
2022-08-19T03:29:31.165Z,98877.41
2022-08-19T03:32:04.714Z,98876.66
2022-08-19T03:34:46.708Z,98883.16
2022-08-19T03:37:15.384Z,98886.54
2022-08-19T03:39:44.045Z,98891.75
2022-08-19T03:42:38.513Z,98888.94
2022-08-19T03:45:01.007Z,98890.09
2022-08-19T03:47:31.586Z,98894.85
2022-08-19T03:49:59.902Z,98897.16
2022-08-19T03:52:31.264Z,98897.41
2022-08-19T03:54:59.392Z,98907.17
2022-08-19T03:57:31.933Z,98908.64
2022-08-19T04:00:12.939Z,98905.48
2022-08-19T04:02:58.046Z,98896.19
2022-08-19T04:05:30.225Z,98894.69
2022-08-19T04:08:00.314Z,98894.44
2022-08-19T04:10:37.014Z,98897.61
2022-08-19T04:13:07.427Z,98908.81
2022-08-19T04:15:42.579Z,98920.13
2022-08-19T04:18:20.129Z,98929.19
2022-08-19T04:20:48.918Z,98929.05
2022-08-19T04:23:17.895Z,98921.79
2022-08-19T04:25:46.061Z,98916.27
2022-08-19T04:28:14.623Z,98920.45
2022-08-19T04:30:48.618Z,98922.13
2022-08-19T04:33:26.825Z,98925.38
2022-08-19T04:35:59.355Z,98929.77
2022-08-19T04:38:27.526Z,98934.20
2022-08-19T04:41:14.468Z,98938.98
2022-08-19T04:43:42.716Z,98937.05
2022-08-19T04:46:18.151Z,98940.87
2022-08-19T04:49:10.347Z,98944.57
2022-08-19T04:51:43.501Z,98946.29
2022-08-19T04:54:12.539Z,98941.80
2022-08-19T04:56:41.700Z,98940.70
2022-08-19T04:59:19.837Z,98942.27
2022-08-19T05:01:51.051Z,98938.10
2022-08-19T05:04:21.392Z,98937.70
2022-08-19T05:06:50.533Z,98929.70
2022-08-19T05:09:19.111Z,98925.05
2022-08-19T05:11:47.096Z,98917.33
2022-08-19T05:14:15.327Z,98913.91
2022-08-19T05:16:43.438Z,98914.48
2022-08-19T05:19:30.686Z,98910.19
2022-08-19T05:22:20.996Z,98908.52
2022-08-19T05:25:21.394Z,98911.02
2022-08-19T05:28:10.879Z,98917.71
2022-08-19T05:30:49.820Z,98915.02
2022-08-19T05:33:20.652Z,98911.98
2022-08-19T05:36:09.390Z,98919.39
2022-08-19T05:38:52.508Z,98923.94
2022-08-19T05:41:47.625Z,98925.39
2022-08-19T05:44:24.763Z,98920.27
2022-08-19T05:46:57.307Z,98924.19
2022-08-19T05:49:28.268Z,98926.40
2022-08-19T05:51:57.106Z,98929.77
2022-08-19T05:54:25.820Z,98928.95
2022-08-19T05:56:55.105Z,98938.03
2022-08-19T05:59:24.909Z,98941.03
2022-08-19T06:01:56.819Z,98945.39
2022-08-19T06:04:25.465Z,98936.74
2022-08-19T06:06:54.846Z,98940.50
2022-08-19T06:09:24.053Z,98941.64
2022-08-19T06:12:00.054Z,98943.79
2022-08-19T06:14:31.687Z,98946.60
2022-08-19T06:17:07.335Z,98946.59
2022-08-19T06:19:42.065Z,98947.83
2022-08-19T06:22:13.173Z,98949.00
2022-08-19T06:24:41.620Z,98950.67
2022-08-19T06:27:14.121Z,98953.70
2022-08-19T06:29:43.674Z,98955.25
2022-08-19T06:32:14.650Z,98954.29
2022-08-19T06:34:47.152Z,98954.52
2022-08-19T06:37:18.516Z,98958.77
2022-08-19T06:39:49.295Z,98962.14
2022-08-19T06:42:21.714Z,98966.56
2022-08-19T06:44:53.277Z,98965.80
2022-08-19T06:47:28.463Z,98973.02
2022-08-19T06:50:14.185Z,98978.36
2022-08-19T06:52:44.119Z,98976.35
2022-08-19T06:55:12.971Z,98973.56
2022-08-19T06:57:41.650Z,98979.09
2022-08-19T07:00:20.077Z,98983.39
2022-08-19T07:02:59.084Z,98981.48
2022-08-19T07:05:32.951Z,98982.00
2022-08-19T07:08:05.027Z,98983.55
2022-08-19T07:10:34.123Z,98982.24
2022-08-19T07:13:02.936Z,98986.94
2022-08-19T07:15:32.133Z,98992.81
2022-08-19T07:18:01.014Z,98989.02
2022-08-19T07:20:29.593Z,98989.66
2022-08-19T07:22:58.263Z,98996.59
2022-08-19T07:25:32.187Z,99001.65
2022-08-19T07:28:01.505Z,99007.95
2022-08-19T07:30:31.498Z,99008.77
2022-08-19T07:33:00.294Z,99013.92
2022-08-19T07:35:33.257Z,99018.52
2022-08-19T07:38:11.861Z,99015.34
2022-08-19T07:40:54.660Z,99016.48
2022-08-19T07:43:34.958Z,99016.63
2022-08-19T07:46:04.288Z,99021.58
2022-08-19T07:48:35.856Z,99020.98
2022-08-19T07:51:14.371Z,99019.85
2022-08-19T07:54:16.984Z,99026.27
2022-08-19T07:56:52.512Z,99029.40
2022-08-19T07:59:48.548Z,99035.50
2022-08-19T08:02:28.887Z,99035.92
2022-08-19T08:05:19.208Z,99041.15
2022-08-19T08:08:22.741Z,99045.21
2022-08-19T08:11:01.353Z,99049.45
2022-08-19T08:13:31.456Z,99047.80
2022-08-19T08:16:00.532Z,99054.16
2022-08-19T08:18:42.562Z,99063.27
2022-08-19T08:21:50.122Z,99065.84
2022-08-19T08:24:36.362Z,99074.41
2022-08-19T08:27:17.815Z,99072.09
2022-08-19T08:29:46.718Z,99072.27
2022-08-19T08:32:19.097Z,99077.64
2022-08-19T08:35:33.046Z,99079.17
2022-08-19T08:38:16.727Z,99085.39
2022-08-19T08:41:09.755Z,99092.20
2022-08-19T08:44:00.403Z,99094.17
2022-08-19T08:46:55.966Z,99097.73
2022-08-19T08:49:57.754Z,99097.73
2022-08-19T08:52:47.794Z,99099.74
2022-08-19T08:55:27.980Z,99094.39
2022-08-19T08:58:44.852Z,99094.06
2022-08-19T09:01:14.419Z,99092.13
2022-08-19T09:03:46.071Z,99093.50
2022-08-19T09:06:33.587Z,99099.20
2022-08-19T09:09:14.926Z,99094.98
2022-08-19T09:12:08.687Z,99096.84
2022-08-19T09:14:58.552Z,99090.33
2022-08-19T09:17:36.434Z,99092.73
2022-08-19T09:20:11.521Z,99097.84
2022-08-19T09:22:41.773Z,99099.64
2022-08-19T09:25:41.211Z,99095.32
2022-08-19T09:28:15.070Z,99096.80
2022-08-19T09:31:05.505Z,99098.66
2022-08-19T09:33:39.459Z,99094.16
2022-08-19T09:36:35.396Z,99092.14
2022-08-19T09:39:16.083Z,99097.73
2022-08-19T09:42:01.878Z,99099.54
2022-08-19T09:44:30.933Z,99106.92
2022-08-19T09:47:06.048Z,99106.43
2022-08-19T09:49:38.942Z,99102.10
2022-08-19T09:52:17.334Z,99093.48
2022-08-19T09:54:57.237Z,99093.58
2022-08-19T09:57:57.036Z,99088.13
2022-08-19T10:00:34.788Z,99079.23
2022-08-19T10:03:03.533Z,99084.15
2022-08-19T10:05:50.154Z,99087.14
2022-08-19T10:08:21.796Z,99086.36
2022-08-19T10:11:39.957Z,99084.57
2022-08-19T10:14:30.549Z,99090.75
2022-08-19T10:19:55.600Z,99079.73
2022-08-19T10:22:27.591Z,99069.73
2022-08-19T10:24:59.513Z,99066.64
2022-08-19T10:27:28.909Z,99071.87
2022-08-19T10:30:01.052Z,99074.59
2022-08-19T10:39:03.473Z,99075.91
2022-08-19T10:42:45.991Z,99085.51
2022-08-19T10:45:52.610Z,99095.21
2022-08-19T10:51:33.385Z,99106.77
2022-08-19T10:54:49.730Z,99117.23
2022-08-19T10:57:46.051Z,99125.56
2022-08-19T11:00:17.598Z,99126.23
2022-08-19T11:02:47.445Z,99123.60
2022-08-19T11:05:20.065Z,99127.75
2022-08-19T11:07:48.652Z,99131.14
2022-08-19T11:10:21.801Z,99137.85
2022-08-19T11:12:55.359Z,99136.80
2022-08-19T11:15:23.634Z,99130.71
2022-08-19T11:17:55.702Z,99130.90
2022-08-19T11:20:36.590Z,99136.12
2022-08-19T11:23:09.251Z,99140.31
2022-08-19T11:26:02.368Z,99141.58
2022-08-19T11:28:37.810Z,99141.17
2022-08-19T11:31:20.840Z,99141.43
2022-08-19T11:33:55.234Z,99136.52
2022-08-19T11:36:26.815Z,99141.38
2022-08-19T11:38:55.766Z,99143.21
2022-08-19T11:41:26.692Z,99149.94
2022-08-19T11:43:56.351Z,99152.14
2022-08-19T11:46:30.673Z,99157.61
2022-08-19T11:49:01.789Z,99160.59
2022-08-19T11:51:51.844Z,99162.48
2022-08-19T11:54:22.545Z,99176.21
2022-08-19T11:56:51.092Z,99174.42
2022-08-19T11:59:22.959Z,99174.55
2022-08-19T12:01:51.738Z,99176.33
2022-08-19T12:04:20.535Z,99183.33
2022-08-19T12:07:04.565Z,99180.63
2022-08-19T12:09:42.961Z,99183.17
2022-08-19T12:12:13.540Z,99181.17
2022-08-19T12:14:58.147Z,99187.04
2022-08-19T12:17:32.788Z,99189.53
2022-08-19T12:20:06.241Z,99195.04
2022-08-19T12:23:01.248Z,99195.59
2022-08-19T12:25:32.274Z,99192.66
2022-08-19T12:28:12.504Z,99192.55
2022-08-19T12:30:54.572Z,99186.75
2022-08-19T12:33:29.821Z,99187.86
2022-08-19T12:36:04.960Z,99192.16
2022-08-19T12:38:48.064Z,99194.00
2022-08-19T12:41:35.365Z,99201.36
2022-08-19T12:44:14.527Z,99199.36
2022-08-19T12:46:57.641Z,99201.59
2022-08-19T12:49:54.569Z,99192.48
2022-08-19T12:52:30.682Z,99193.43
2022-08-19T12:55:08.778Z,99193.33
2022-08-19T12:57:50.399Z,99190.77
2022-08-19T13:00:26.902Z,99191.66
2022-08-19T13:03:19.893Z,99188.59
2022-08-19T13:05:51.491Z,99189.97
2022-08-19T13:08:26.800Z,99188.75
2022-08-19T13:10:55.756Z,99189.75
2022-08-19T13:13:35.664Z,99186.15
2022-08-19T13:16:12.559Z,99191.57
2022-08-19T13:18:56.369Z,99197.00
2022-08-19T13:21:31.933Z,99201.02
2022-08-19T13:24:07.520Z,99203.33
2022-08-19T13:26:44.147Z,99205.63
2022-08-19T13:29:38.623Z,99202.43
2022-08-19T13:32:42.668Z,99200.92
2022-08-19T13:35:22.211Z,99203.22
2022-08-19T13:37:53.525Z,99202.53
2022-08-19T13:40:28.576Z,99205.10
2022-08-19T13:43:17.636Z,99202.10
2022-08-19T13:46:04.774Z,99199.95
2022-08-19T13:48:37.074Z,99194.40
2022-08-19T13:51:11.618Z,99191.85
2022-08-19T13:54:10.061Z,99195.73
2022-08-19T13:56:49.062Z,99194.02
2022-08-19T13:59:18.307Z,99198.78
2022-08-19T14:01:50.087Z,99197.38
2022-08-19T14:04:21.731Z,99201.71
2022-08-19T14:06:52.761Z,99199.02
2022-08-19T14:09:21.293Z,99199.04
2022-08-19T14:11:51.571Z,99195.27
2022-08-19T14:14:20.591Z,99199.98
2022-08-19T14:16:58.053Z,99194.85
2022-08-19T14:19:30.338Z,99202.70
2022-08-19T14:22:00.549Z,99207.33
2022-08-19T14:24:37.464Z,99204.23
2022-08-19T14:27:09.870Z,99207.80
2022-08-19T14:29:47.746Z,99207.62
2022-08-19T14:32:22.382Z,99206.02
2022-08-19T14:34:55.657Z,99203.34
2022-08-19T14:37:27.050Z,99198.80
2022-08-19T14:40:00.120Z,99188.52
2022-08-19T14:42:49.998Z,99189.77
2022-08-19T14:45:42.999Z,99185.98
2022-08-19T14:48:32.784Z,99189.17
2022-08-19T14:51:09.820Z,99189.70
2022-08-19T14:54:04.899Z,99184.08
2022-08-19T14:57:11.336Z,99189.98
2022-08-19T15:00:10.107Z,99178.28
2022-08-19T15:03:03.874Z,99179.02
2022-08-19T15:05:33.295Z,99184.07
2022-08-19T15:08:06.774Z,99184.11
2022-08-19T15:10:40.464Z,99187.21
2022-08-19T15:13:13.246Z,99185.73
2022-08-19T15:15:58.768Z,99189.48
2022-08-19T15:18:38.716Z,99193.75
2022-08-19T15:21:10.535Z,99194.42
2022-08-19T15:23:46.325Z,99189.38
2022-08-19T15:26:46.584Z,99193.81
2022-08-19T15:29:35.109Z,99183.84
2022-08-19T15:32:13.049Z,99190.80
2022-08-19T15:34:51.183Z,99198.05
2022-08-19T15:37:25.485Z,99202.90
2022-08-19T15:40:02.621Z,99198.07
2022-08-19T15:42:59.033Z,99193.35
2022-08-19T15:45:33.003Z,99186.95
2022-08-19T15:48:05.068Z,99194.15
2022-08-19T15:50:33.337Z,99197.59
2022-08-19T15:53:06.851Z,99199.00
2022-08-19T15:55:41.898Z,99194.71
2022-08-19T15:58:32.026Z,99197.11
2022-08-19T16:01:47.756Z,99195.25
2022-08-19T16:04:39.998Z,99191.45
2022-08-19T16:07:12.829Z,99189.83
2022-08-19T16:09:41.549Z,99191.00
2022-08-19T16:12:12.801Z,99185.81
2022-08-19T16:14:54.302Z,99185.47
2022-08-19T16:17:25.741Z,99188.70
2022-08-19T16:21:05.323Z,99189.11
2022-08-19T16:23:54.552Z,99191.05
2022-08-19T16:26:26.719Z,99189.05
2022-08-19T16:29:34.295Z,99188.20
2022-08-19T16:32:13.117Z,99189.55
2022-08-19T16:34:47.692Z,99193.23
2022-08-19T16:37:22.644Z,99199.23
2022-08-19T16:39:51.377Z,99198.27
2022-08-19T16:42:41.379Z,99193.48
2022-08-19T16:45:55.836Z,99197.77
2022-08-19T16:48:43.261Z,99196.47
2022-08-19T16:51:19.547Z,99193.13
2022-08-19T16:53:57.727Z,99193.79
2022-08-19T16:56:27.948Z,99195.23
2022-08-19T16:59:02.343Z,99199.90
2022-08-19T17:01:39.324Z,99203.98
2022-08-19T17:04:12.306Z,99209.45
2022-08-19T17:06:49.991Z,99205.09
2022-08-19T17:09:19.188Z,99204.80
2022-08-19T17:12:06.161Z,99206.77
2022-08-19T17:14:36.366Z,99204.25
2022-08-19T17:17:14.087Z,99206.91
2022-08-19T17:19:44.662Z,99210.92
2022-08-19T17:22:34.933Z,99220.84
2022-08-19T17:25:04.482Z,99226.77
2022-08-19T17:27:33.027Z,99230.55
2022-08-19T17:30:03.075Z,99242.98
2022-08-19T17:32:35.141Z,99248.73
2022-08-19T17:35:04.960Z,99246.60
2022-08-19T17:37:39.460Z,99251.10
2022-08-19T17:40:09.193Z,99257.89
2022-08-19T17:42:40.495Z,99257.75
2022-08-19T17:45:09.890Z,99253.11
2022-08-19T17:47:39.571Z,99254.46
2022-08-19T17:50:13.270Z,99262.89
2022-08-19T17:52:43.226Z,99265.30
2022-08-19T17:55:35.472Z,99267.42
2022-08-19T17:58:20.140Z,99272.97
2022-08-19T18:00:54.139Z,99265.20
2022-08-19T18:03:39.193Z,99263.95
2022-08-19T18:10:17.691Z,99284.42
2022-08-19T18:12:46.521Z,99284.80
2022-08-19T18:15:21.446Z,99286.25
2022-08-19T18:17:53.033Z,99288.85
2022-08-19T18:20:30.788Z,99292.14
2022-08-19T18:23:44.377Z,99295.84
2022-08-19T18:25:50.797Z,99292.42
2022-08-19T18:28:25.362Z,99293.71
2022-08-19T18:31:06.531Z,99295.20
2022-08-19T18:33:44.596Z,99296.07
2022-08-19T18:36:13.276Z,99293.81
2022-08-19T18:39:03.901Z,99286.93
2022-08-19T18:41:54.207Z,99273.40
2022-08-19T18:44:46.868Z,99263.89
2022-08-19T18:47:37.155Z,99272.98
2022-08-19T18:50:13.859Z,99275.14
2022-08-19T18:52:43.391Z,99274.30
2022-08-19T18:55:18.311Z,99276.13
2022-08-19T18:57:52.673Z,99273.00
2022-08-19T19:00:24.412Z,99268.14
2022-08-19T19:02:56.056Z,99267.00
2022-08-19T19:05:28.376Z,99276.73
2022-08-19T19:08:04.552Z,99280.86
2022-08-19T19:10:36.614Z,99278.17
2022-08-19T19:13:08.436Z,99282.73
2022-08-19T19:15:39.618Z,99285.86
2022-08-19T19:18:08.433Z,99287.58
2022-08-19T19:20:36.845Z,99288.23
2022-08-19T19:23:05.667Z,99294.18
2022-08-19T19:25:44.833Z,99294.29
2022-08-19T19:28:29.371Z,99298.63
2022-08-19T19:30:59.011Z,99303.33
2022-08-19T19:33:28.776Z,99302.35
2022-08-19T19:35:57.574Z,99309.73
2022-08-19T19:38:25.910Z,99312.18
2022-08-19T19:40:55.063Z,99307.61
2022-08-19T19:43:26.192Z,99314.15
2022-08-19T19:45:57.786Z,99319.72
2022-08-19T19:48:29.175Z,99327.92
2022-08-19T19:50:57.524Z,99327.74
2022-08-19T19:53:35.462Z,99327.59
2022-08-19T19:56:04.558Z,99328.39
2022-08-19T19:58:38.403Z,99328.49
2022-08-19T20:01:13.278Z,99335.31
2022-08-19T20:04:09.018Z,99349.15
2022-08-19T20:06:42.114Z,99340.80
2022-08-19T20:09:17.554Z,99344.13
2022-08-19T20:11:54.657Z,99355.64
2022-08-19T20:14:33.428Z,99358.30
2022-08-19T20:17:03.082Z,99359.72
2022-08-19T20:19:39.588Z,99369.67
2022-08-19T20:22:08.346Z,99369.37
2022-08-19T20:24:37.971Z,99379.27
2022-08-19T20:27:12.774Z,99384.59
2022-08-19T20:29:51.801Z,99385.02
2022-08-19T20:32:29.505Z,99380.81
2022-08-19T20:35:00.422Z,99369.11
2022-08-19T20:37:30.031Z,99369.13
2022-08-19T20:40:05.858Z,99375.30
2022-08-19T20:48:12.932Z,99376.95
2022-08-19T20:50:56.844Z,99376.17
2022-08-19T20:53:28.529Z,99370.95
2022-08-19T20:56:09.974Z,99376.85
2022-08-19T20:59:09.676Z,99373.10
2022-08-19T21:01:42.546Z,99374.91
2022-08-19T21:04:15.351Z,99375.18
2022-08-19T21:06:47.643Z,99370.98
2022-08-19T21:09:37.650Z,99380.53
2022-08-19T21:12:07.380Z,99379.98
2022-08-19T21:14:42.222Z,99384.73
2022-08-19T21:17:12.273Z,99386.11
2022-08-19T21:19:41.938Z,99384.26
2022-08-19T21:22:10.932Z,99380.40
2022-08-19T21:24:39.997Z,99378.14
2022-08-19T21:27:12.986Z,99379.06
2022-08-19T21:29:42.631Z,99384.21
2022-08-19T21:32:27.326Z,99381.56
2022-08-19T21:34:56.197Z,99378.61
2022-08-19T21:37:26.162Z,99372.59
2022-08-19T21:39:56.695Z,99361.75
2022-08-19T21:42:25.717Z,99360.23
2022-08-19T21:44:55.668Z,99362.44
2022-08-19T21:47:32.241Z,99366.15
2022-08-19T21:50:02.074Z,99359.75
2022-08-19T21:52:33.099Z,99352.55
2022-08-19T21:55:01.446Z,99348.30
2022-08-19T21:57:32.485Z,99345.23
2022-08-19T22:00:00.817Z,99345.06
2022-08-19T22:02:40.154Z,99341.05
2022-08-19T22:05:25.409Z,99347.16
2022-08-19T22:07:58.380Z,99345.83
2022-08-19T22:10:40.433Z,99349.54
2022-08-19T22:13:11.852Z,99349.39
2022-08-19T22:15:44.621Z,99353.31
2022-08-19T22:18:19.370Z,99352.48
2022-08-19T22:20:52.850Z,99352.18
2022-08-19T22:23:21.582Z,99348.43
2022-08-19T22:25:51.414Z,99343.82
2022-08-19T22:28:27.588Z,99338.48
2022-08-19T22:30:56.896Z,99331.70
2022-08-19T22:33:39.741Z,99323.55
2022-08-19T22:36:32.471Z,99321.27
2022-08-19T22:39:05.365Z,99318.59
2022-08-19T22:41:41.005Z,99316.63
2022-08-19T22:44:11.644Z,99310.73
2022-08-19T22:46:43.070Z,99307.29
2022-08-19T22:49:12.694Z,99296.15
2022-08-19T22:52:00.261Z,99294.63
2022-08-19T22:54:28.845Z,99295.48
2022-08-19T22:57:12.050Z,99293.59
2022-08-19T22:59:41.498Z,99290.85
2022-08-19T23:02:10.066Z,99290.11
2022-08-19T23:04:38.684Z,99287.23
2022-08-19T23:07:09.503Z,99292.27
2022-08-19T23:09:37.735Z,99298.55
2022-08-19T23:12:08.354Z,99303.20
2022-08-19T23:14:37.705Z,99308.91
2022-08-19T23:17:06.245Z,99312.71
2022-08-19T23:19:34.491Z,99310.70
2022-08-19T23:22:02.799Z,99312.20
2022-08-19T23:24:31.146Z,99316.17
2022-08-19T23:27:28.963Z,99311.77
2022-08-19T23:30:16.183Z,99317.48
2022-08-19T23:32:47.690Z,99310.16
2022-08-19T23:35:17.354Z,99307.61
2022-08-19T23:37:45.533Z,99301.36
2022-08-19T23:40:17.399Z,99304.14
2022-08-19T23:42:46.855Z,99312.88
2022-08-19T23:45:23.639Z,99316.51
2022-08-19T23:47:53.406Z,99321.96
2022-08-19T23:50:24.691Z,99328.21
2022-08-19T23:52:56.071Z,99329.61
2022-08-19T23:55:31.828Z,99331.52
2022-08-19T23:58:01.022Z,99336.92
